Dorchester, MA (02121)

9:33 PM EDT on August 30, 2015 (GMT -0400)
Lincoln Street | | Change Station
CLOSE
Current Station
Personal Weather Station
Location: Milton, MA
Elevation: 46 ft
Nearby Weather Stations

Elev 46 ft 42.26 °N, 71.09 °W | Updated 3 seconds ago

Partly Cloudy
Partly Cloudy
73.9 °F
Feels Like 75 °F
N
0.0
Wind Variable Wind from SW
Gusts 0.0 mph

Today
High -- | Low -- °F
--% Chance of Precip.
Yesterday
High -- | Low -- °F
Precip. -- in
6:07 AM 7:22 PM
Full, 97% visible
Pressure 30.02 in
Visibility 10.0 miles
Clouds Mostly Cloudy 6000 ft
Mostly Cloudy 10000 ft
Heat Index 75 °F
Dew Point 64 °F
Humidity 72%
Rainfall 0.00 in
Snow Depth Not available.
UV 0 out of 12
Pollen 10.70 out of 12
Air Quality Not available.
Flu Activity Not available.
METAR KOWD 310053Z 00000KT 10SM BKN060 BKN100 22/18 A3002 RMK AO2 SLP164 T02170178
Pressure 30.02 in
Visibility 10.0 miles
Clouds Mostly Cloudy 6000 ft
Mostly Cloudy 10000 ft
Heat Index 75 °F
Dew Point 64 °F
Humidity 72%
Rainfall 0.00 in
Snow Depth Not available.
UV 0 out of 12
Pollen 10.70 out of 12
Air Quality Not available.
Flu Activity Not available.
METAR KOWD 310053Z 00000KT 10SM BKN060 BKN100 22/18 A3002 RMK AO2 SLP164 T02170178

10-Day Weather Forecast

×

Almanac

Astronomy

Aug. 30, 2015 Rise Set
Actual Time
Civil Twilight
Nautical Twilight
Astronomical Twilight
Moon
Length of Visible Light
Length of Day
Tomorrow will be .
, % of the Moon is Illuminated

Today's Extremes

State Highs State Lows

Community

WunderPhotos

Upload Photos

1,851,145 photos uploaded!

WunderBlogs® & News

Nearby

Air Quality

  Air Quality AQ Index Pollutant
Not available.

Snow Depth

Station Depth Elevation

Earthquake Activity

City Distance Mag. Time & Date
Minimum magnitude displayed is 2.5.

Coastal Water Temperatures

Place Temperature

Stations

Nearby Weather Stations

Station Location Temp. Windchill Dew Point Humidity Wind Precip. Elev Updated Type